Time;durP1;ratioP1;P1;durP2;ratioP2;P2;SDS_P1;SDS_P2;PMS_P1;PMS_P2;Temp;Humidity;BMP_temperature;BMP_pressure;BME280_temperature;BME280_humidity;BME280_pressure;Samples;Min_cycle;Max_cycle;Signal;HPM_P1;HPM_P2
2022/03/12 00:01:05;;;;;;;11.20;7.87;;;10.90;1.00;;;;;;5082426;28;20454;-78
2022/03/12 00:03:34;;;;;;;11.30;7.47;;;11.00;1.00;;;;;;5081694;28;20533;-78
2022/03/12 00:06:04;;;;;;;9.10;7.37;;;11.10;1.00;;;;;;5082974;28;20450;-77
2022/03/12 00:08:42;;;;;;;11.60;7.10;;;11.20;1.00;;;;;;5083655;28;21094;-78
2022/03/12 00:11:12;;;;;;;13.40;7.17;;;11.20;1.00;;;;;;5081223;28;20456;-79
2022/03/12 00:13:40;;;;;;;10.87;6.90;;;11.40;1.00;;;;;;5084786;28;20541;-78
2022/03/12 00:16:13;;;;;;;9.53;6.80;;;11.10;1.00;;;;;;5081871;28;20478;-78
2022/03/12 00:18:42;;;;;;;13.10;8.47;;;11.00;1.00;;;;;;5080948;28;20487;-77
2022/03/12 00:21:13;;;;;;;12.57;7.80;;;10.90;1.00;;;;;;5074290;28;20451;-77
2022/03/12 00:23:47;;;;;;;14.57;8.60;;;10.90;1.00;;;;;;5081172;28;20881;-78
2022/03/12 00:26:17;;;;;;;12.80;8.13;;;10.90;1.00;;;;;;5076911;28;20449;-77
2022/03/12 00:28:46;;;;;;;15.70;9.40;;;10.90;1.00;;;;;;5080698;28;20532;-78
2022/03/12 00:31:15;;;;;;;8.93;7.53;;;10.90;1.00;;;;;;5085110;28;20458;-77
2022/03/12 00:33:44;;;;;;;8.80;7.67;;;10.90;1.00;;;;;;5079896;28;20459;-77
2022/03/12 00:36:12;;;;;;;12.40;8.40;;;10.90;1.00;;;;;;5082193;28;20469;-77
2022/03/12 00:38:41;;;;;;;13.40;8.90;;;10.70;1.00;;;;;;5082548;28;20486;-77
2022/03/12 00:41:11;;;;;;;11.87;7.10;;;10.70;1.00;;;;;;5082152;28;20457;-77
2022/03/12 00:43:39;;;;;;;13.60;8.10;;;10.40;1.00;;;;;;5083600;28;20467;-76
2022/03/12 00:46:07;;;;;;;13.30;7.60;;;10.00;1.00;;;;;;5081498;28;20445;-77
2022/03/12 00:48:38;;;;;;;14.57;8.17;;;9.70;1.00;;;;;;5083407;28;21041;-77
2022/03/12 00:51:08;;;;;;;8.87;6.80;;;9.60;1.00;;;;;;5084185;28;20458;-78
2022/03/12 00:53:36;;;;;;;13.17;7.13;;;9.60;1.00;;;;;;5085793;28;20460;-78
2022/03/12 00:56:06;;;;;;;11.23;7.10;;;9.70;1.00;;;;;;5084556;28;20469;-79
2022/03/12 00:58:35;;;;;;;9.80;7.63;;;9.90;1.00;;;;;;5089202;28;20480;-79
2022/03/12 01:01:04;;;;;;;12.80;8.33;;;10.10;1.00;;;;;;5083805;28;20463;-79
2022/03/12 01:03:33;;;;;;;12.80;8.57;;;10.20;1.00;;;;;;5086097;28;20464;-78
2022/03/12 01:06:04;;;;;;;10.83;7.50;;;10.40;1.00;;;;;;5086165;28;20457;-79
2022/03/12 01:08:34;;;;;;;11.93;8.50;;;10.40;1.00;;;;;;5085062;28;20821;-79
2022/03/12 01:11:04;;;;;;;13.40;7.37;;;10.40;1.00;;;;;;5086511;28;20460;-78
2022/03/12 01:13:32;;;;;;;12.07;8.20;;;10.50;1.00;;;;;;5085880;28;20499;-78
2022/03/12 01:16:01;;;;;;;9.57;8.00;;;10.60;1.00;;;;;;5092140;28;20546;-78
2022/03/12 01:18:29;;;;;;;10.73;6.83;;;10.70;1.00;;;;;;5087786;28;20462;-79
2022/03/12 01:21:10;;;;;;;9.70;6.70;;;10.70;1.00;;;;;;5078499;28;20815;-78
2022/03/12 01:23:38;;;;;;;15.43;11.33;;;10.80;1.00;;;;;;5083234;28;20457;-78
2022/03/12 01:26:06;;;;;;;9.07;6.93;;;10.90;1.00;;;;;;5083083;28;20457;-78
2022/03/12 01:28:35;;;;;;;8.57;6.67;;;10.70;1.00;;;;;;5085363;28;20479;-79
2022/03/12 01:31:03;;;;;;;12.17;9.10;;;10.80;1.00;;;;;;5086306;28;20445;-79
2022/03/12 01:33:32;;;;;;;10.63;6.70;;;10.80;1.00;;;;;;5080527;28;20455;-78
2022/03/12 01:36:00;;;;;;;9.87;7.47;;;10.60;1.00;;;;;;5080000;28;20486;-78
2022/03/12 01:38:32;;;;;;;10.53;6.73;;;10.50;1.00;;;;;;5084798;28;20943;-78
2022/03/12 01:41:02;;;;;;;9.07;7.83;;;10.50;1.00;;;;;;5084139;28;20957;-79
2022/03/12 01:43:32;;;;;;;11.57;7.33;;;10.40;1.00;;;;;;5083906;28;20988;-79
2022/03/12 01:46:01;;;;;;;11.80;7.70;;;10.50;1.00;;;;;;5084148;28;20484;-79
2022/03/12 01:48:31;;;;;;;8.37;7.07;;;10.40;1.00;;;;;;5081527;28;20489;-78
2022/03/12 01:51:00;;;;;;;12.00;6.80;;;10.20;1.00;;;;;;5081587;28;20518;-78
2022/03/12 01:53:28;;;;;;;11.27;6.70;;;10.20;1.00;;;;;;5082196;28;20510;-78
2022/03/12 01:55:58;;;;;;;10.50;7.70;;;10.20;1.00;;;;;;5081805;28;20474;-78
2022/03/12 01:58:26;;;;;;;10.80;6.90;;;10.10;1.00;;;;;;5076459;28;21006;-78
2022/03/12 02:00:57;;;;;;;11.90;6.33;;;10.30;1.00;;;;;;5079007;28;20454;-78
2022/03/12 02:03:28;;;;;;;11.97;7.13;;;10.20;1.00;;;;;;5082298;28;20540;-78
2022/03/12 02:05:56;;;;;;;10.90;7.57;;;10.30;1.00;;;;;;5082069;28;20767;-77
2022/03/12 02:08:25;;;;;;;12.73;7.00;;;10.70;1.00;;;;;;5080599;28;20484;-79
2022/03/12 02:10:59;;;;;;;9.07;7.60;;;10.50;1.00;;;;;;5084865;28;20528;-77
2022/03/12 02:13:31;;;;;;;10.60;6.70;;;10.60;1.00;;;;;;5082526;28;20527;-77
2022/03/12 02:16:07;;;;;;;17.53;7.43;;;10.60;1.00;;;;;;5082700;28;20510;-78
2022/03/12 02:18:37;;;;;;;11.27;7.33;;;10.50;1.00;;;;;;5086621;28;20903;-77
2022/03/12 02:21:06;;;;;;;10.70;6.93;;;10.40;1.00;;;;;;5086027;28;20458;-77
2022/03/12 02:23:47;;;;;;;10.23;7.23;;;10.50;1.00;;;;;;5088077;28;20450;-76
2022/03/12 02:26:16;;;;;;;11.67;7.53;;;10.50;1.00;;;;;;5090250;28;20456;-76
2022/03/12 02:28:45;;;;;;;11.73;7.00;;;10.50;1.00;;;;;;5085697;28;20481;-76
2022/03/12 02:31:14;;;;;;;9.50;5.90;;;10.40;1.00;;;;;;5083565;28;20456;-77
2022/03/12 02:33:44;;;;;;;11.30;7.90;;;10.60;1.00;;;;;;5086539;28;20469;-77
2022/03/12 02:36:13;;;;;;;10.23;7.40;;;10.90;1.00;;;;;;5085549;28;20449;-77
2022/03/12 02:38:42;;;;;;;9.20;7.77;;;10.60;1.00;;;;;;5084478;28;20496;-77
2022/03/12 02:41:12;;;;;;;11.33;6.80;;;10.50;1.00;;;;;;5085744;28;20450;-77
2022/03/12 02:43:43;;;;;;;14.30;7.87;;;10.50;1.00;;;;;;5086817;28;20462;-78
2022/03/12 02:46:14;;;;;;;9.40;7.10;;;10.50;1.00;;;;;;5086933;28;20472;-77
2022/03/12 02:48:49;;;;;;;8.30;6.77;;;10.70;1.00;;;;;;5088949;28;20476;-78
2022/03/12 02:51:20;;;;;;;14.00;8.43;;;10.60;1.00;;;;;;5081044;28;20450;-78
2022/03/12 02:53:50;;;;;;;9.87;6.67;;;10.60;1.00;;;;;;5088039;28;21269;-77
2022/03/12 02:56:21;;;;;;;10.47;7.47;;;10.60;1.00;;;;;;5085469;28;20441;-77
2022/03/12 02:58:49;;;;;;;16.93;7.00;;;10.50;1.00;;;;;;5089750;28;21186;-78
2022/03/12 03:01:18;;;;;;;10.87;7.17;;;10.40;1.00;;;;;;5085549;28;20458;-77
2022/03/12 03:03:47;;;;;;;6.97;5.60;;;10.40;1.00;;;;;;5079045;28;21143;-77
2022/03/12 03:06:16;;;;;;;11.47;8.30;;;10.30;1.00;;;;;;5082346;28;20487;-77
2022/03/12 03:08:44;;;;;;;9.60;7.83;;;10.30;1.00;;;;;;5091808;28;20473;-77
2022/03/12 03:11:14;;;;;;;9.73;7.13;;;10.30;1.00;;;;;;5083245;28;20472;-76
2022/03/12 03:13:44;;;;;;;8.70;5.70;;;10.20;1.00;;;;;;5089739;28;20468;-77
2022/03/12 03:16:21;;;;;;;10.17;7.10;;;10.10;1.00;;;;;;5090352;28;20453;-77
2022/03/12 03:18:54;;;;;;;7.83;6.20;;;10.10;1.00;;;;;;5080255;28;20468;-77
2022/03/12 03:21:27;;;;;;;9.13;6.30;;;10.20;1.00;;;;;;5084349;28;20441;-77
2022/03/12 03:23:56;;;;;;;9.23;7.60;;;10.20;1.00;;;;;;5085845;28;20532;-77
2022/03/12 03:26:52;;;;;;;10.07;7.80;;;10.20;1.00;;;;;;5088756;28;20522;-78
2022/03/12 03:29:22;;;;;;;10.63;6.57;;;10.40;1.00;;;;;;5081480;28;21030;-78
2022/03/12 03:31:51;;;;;;;9.50;7.10;;;10.40;1.00;;;;;;5086368;28;20450;-77
2022/03/12 03:34:21;;;;;;;10.33;6.97;;;10.40;1.00;;;;;;5081668;28;20458;-78
2022/03/12 03:36:49;;;;;;;10.20;7.07;;;10.30;1.00;;;;;;5092542;28;20462;-78
2022/03/12 03:39:18;;;;;;;13.57;7.97;;;10.30;1.00;;;;;;5084282;28;20513;-78
2022/03/12 03:41:46;;;;;;;9.27;6.37;;;10.30;1.00;;;;;;5104434;27;20467;-77
2022/03/12 03:44:16;;;;;;;11.47;8.40;;;10.60;1.00;;;;;;5082487;28;20448;-78
2022/03/12 03:46:46;;;;;;;10.27;6.70;;;10.50;1.00;;;;;;5091664;28;20461;-77
2022/03/12 03:49:15;;;;;;;10.60;7.13;;;10.50;1.00;;;;;;5081075;28;20473;-77
2022/03/12 03:51:44;;;;;;;7.47;6.23;;;10.50;1.00;;;;;;5086017;28;20462;-78
2022/03/12 03:54:15;;;;;;;7.93;6.77;;;10.40;1.00;;;;;;5084263;28;21025;-78
2022/03/12 03:56:43;;;;;;;11.40;6.87;;;10.30;1.00;;;;;;5085098;28;20509;-77
2022/03/12 03:59:12;;;;;;;11.40;6.53;;;10.40;1.00;;;;;;5084518;28;20640;-77
2022/03/12 04:01:41;;;;;;;14.50;7.30;;;10.30;1.00;;;;;;5084742;28;20866;-78
2022/03/12 04:04:13;;;;;;;12.43;7.60;;;10.30;1.00;;;;;;5089191;28;20464;-76
2022/03/12 04:06:41;;;;;;;12.00;7.10;;;10.30;1.00;;;;;;5082251;28;20887;-77
2022/03/12 04:09:10;;;;;;;12.03;7.90;;;10.30;1.00;;;;;;5081438;28;21109;-77
2022/03/12 04:11:39;;;;;;;11.30;8.13;;;10.20;1.00;;;;;;5081472;28;20442;-77
2022/03/12 04:14:08;;;;;;;12.07;7.10;;;10.50;1.00;;;;;;5084518;28;20953;-77
2022/03/12 04:16:37;;;;;;;11.57;7.40;;;10.40;1.00;;;;;;5083964;28;20461;-77
2022/03/12 04:19:07;;;;;;;10.23;6.80;;;10.20;1.00;;;;;;5070926;28;20490;-76
2022/03/12 04:21:36;;;;;;;10.20;7.67;;;10.20;1.00;;;;;;5085830;28;20457;-78
2022/03/12 04:24:05;;;;;;;11.30;7.30;;;10.20;1.00;;;;;;5087384;28;20514;-77
2022/03/12 04:26:35;;;;;;;11.93;7.13;;;10.00;1.00;;;;;;5085763;28;20457;-76
2022/03/12 04:29:04;;;;;;;12.60;7.73;;;10.10;1.00;;;;;;5081503;28;20555;-77
2022/03/12 04:31:33;;;;;;;10.33;6.90;;;10.10;1.00;;;;;;5086180;28;20472;-76
2022/03/12 04:34:01;;;;;;;11.40;7.40;;;10.20;1.00;;;;;;5088953;28;20996;-77
2022/03/12 04:36:29;;;;;;;9.67;7.00;;;10.20;1.00;;;;;;5089052;28;20873;-76
2022/03/12 04:38:59;;;;;;;10.43;6.50;;;10.20;1.00;;;;;;5084428;28;20968;-76
2022/03/12 04:41:35;;;;;;;11.67;7.93;;;10.20;1.00;;;;;;5083686;28;20534;-77
2022/03/12 04:44:04;;;;;;;7.23;6.20;;;10.10;1.00;;;;;;5083059;28;20904;-77
2022/03/12 04:46:32;;;;;;;8.07;6.97;;;9.90;1.00;;;;;;5090761;28;20487;-77
2022/03/12 04:49:00;;;;;;;11.40;7.00;;;9.90;1.00;;;;;;5088133;28;20869;-77
2022/03/12 04:51:29;;;;;;;12.52;8.40;;;9.90;1.00;;;;;;5081872;28;20444;-77
2022/03/12 04:54:00;;;;;;;11.40;7.70;;;10.20;1.00;;;;;;5084504;28;20211;-77
2022/03/12 04:56:28;;;;;;;11.93;7.50;;;9.90;1.00;;;;;;5088560;28;20438;-78
2022/03/12 04:58:56;;;;;;;9.67;6.73;;;9.80;1.00;;;;;;5073604;28;20587;-80
2022/03/12 05:01:25;;;;;;;10.93;7.93;;;9.80;1.00;;;;;;5079220;28;20478;-78
2022/03/12 05:03:54;;;;;;;13.47;7.53;;;9.70;1.00;;;;;;5088357;28;20492;-78
2022/03/12 05:06:23;;;;;;;9.57;7.20;;;9.70;1.00;;;;;;5086130;28;20577;-79
2022/03/12 05:08:53;;;;;;;9.77;6.90;;;9.60;1.00;;;;;;5086354;28;20583;-77
2022/03/12 05:11:22;;;;;;;9.33;7.40;;;9.70;1.00;;;;;;5087644;28;20456;-77
2022/03/12 05:13:53;;;;;;;8.77;6.40;;;9.90;1.00;;;;;;5081839;28;20507;-77
2022/03/12 05:16:22;;;;;;;12.23;8.40;;;9.90;1.00;;;;;;5087709;28;20520;-78
2022/03/12 05:18:50;;;;;;;11.40;8.07;;;10.00;1.00;;;;;;5084039;28;20971;-77
2022/03/12 05:21:19;;;;;;;11.87;7.90;;;10.00;1.00;;;;;;5087445;28;20825;-78
2022/03/12 05:23:47;;;;;;;8.80;7.47;;;10.10;1.00;;;;;;5080748;28;20939;-77
2022/03/12 05:26:15;;;;;;;15.70;7.97;;;10.20;1.00;;;;;;5070537;28;20473;-78
2022/03/12 05:28:45;;;;;;;9.17;7.20;;;10.40;1.00;;;;;;5084619;28;20556;-78
2022/03/12 05:31:13;;;;;;;9.00;7.10;;;10.20;1.00;;;;;;5085588;28;21180;-79
2022/03/12 05:33:42;;;;;;;8.83;6.73;;;10.10;1.00;;;;;;5079587;28;20464;-76
2022/03/12 05:36:10;;;;;;;10.20;7.20;;;10.10;1.00;;;;;;5091806;28;20663;-76
2022/03/12 05:38:39;;;;;;;11.97;8.13;;;10.20;1.00;;;;;;5088480;28;20860;-77
2022/03/12 05:41:11;;;;;;;12.20;8.07;;;10.10;1.00;;;;;;5095398;28;20444;-78
2022/03/12 05:43:41;;;;;;;12.60;7.93;;;10.10;1.00;;;;;;5092170;28;20576;-77
2022/03/12 05:46:12;;;;;;;9.07;7.50;;;10.00;1.00;;;;;;5094552;28;21473;-77
2022/03/12 05:48:40;;;;;;;11.47;7.57;;;10.20;1.00;;;;;;5090375;28;20987;-75
2022/03/12 05:51:09;;;;;;;8.80;6.60;;;9.90;1.00;;;;;;5082015;28;20457;-77
2022/03/12 05:53:38;;;;;;;12.10;7.33;;;10.00;1.00;;;;;;5090921;28;20508;-77
2022/03/12 05:56:07;;;;;;;9.67;7.13;;;10.10;1.00;;;;;;5091342;28;20449;-78
2022/03/12 05:58:39;;;;;;;10.70;7.30;;;10.10;1.00;;;;;;5084373;28;20493;-77
2022/03/12 06:01:08;;;;;;;12.00;8.23;;;10.00;1.00;;;;;;5083669;28;20446;-77
2022/03/12 06:03:38;;;;;;;10.57;7.27;;;9.90;1.00;;;;;;5087411;28;20464;-77
2022/03/12 06:06:07;;;;;;;10.27;6.30;;;9.90;1.00;;;;;;5093575;27;20464;-74
2022/03/12 06:08:35;;;;;;;8.57;7.00;;;10.10;1.00;;;;;;5089194;28;20530;-75
2022/03/12 06:11:03;;;;;;;11.10;7.20;;;9.90;1.00;;;;;;5087632;28;21107;-75
2022/03/12 06:13:32;;;;;;;10.43;7.10;;;10.10;1.00;;;;;;5087156;28;20998;-75
2022/03/12 06:16:02;;;;;;;10.50;7.97;;;9.80;1.00;;;;;;5095205;28;20449;-75
2022/03/12 06:18:34;;;;;;;10.33;6.40;;;9.80;1.00;;;;;;5085236;28;20482;-75
2022/03/12 06:21:05;;;;;;;12.47;7.70;;;9.90;1.00;;;;;;5091409;28;20463;-74
2022/03/12 06:23:34;;;;;;;12.90;9.40;;;9.90;1.00;;;;;;5086480;28;20467;-74
2022/03/12 06:26:03;;;;;;;10.63;8.30;;;10.00;1.00;;;;;;5085353;28;21000;-74
2022/03/12 06:28:33;;;;;;;9.80;7.33;;;9.90;1.00;;;;;;5080347;28;20466;-75
2022/03/12 06:31:02;;;;;;;11.90;7.30;;;9.90;1.00;;;;;;5080194;28;20509;-75
2022/03/12 06:33:31;;;;;;;15.73;10.23;;;9.90;1.00;;;;;;5078503;28;20441;-74
2022/03/12 06:36:01;;;;;;;17.30;13.07;;;9.80;1.00;;;;;;5090150;28;20788;-75
2022/03/12 06:38:30;;;;;;;12.43;9.17;;;9.60;1.00;;;;;;5086881;28;20470;-75
2022/03/12 06:40:59;;;;;;;15.53;9.20;;;9.40;1.00;;;;;;5088198;28;20452;-75
2022/03/12 06:43:28;;;;;;;12.67;8.27;;;9.50;1.00;;;;;;5081333;28;20452;-77
2022/03/12 06:45:59;;;;;;;9.37;7.70;;;9.60;1.00;;;;;;5087227;28;20471;-75
2022/03/12 06:48:28;;;;;;;12.68;8.93;;;9.80;1.00;;;;;;5074654;28;20453;-76
2022/03/12 06:50:56;;;;;;;13.00;8.83;;;9.90;1.00;;;;;;5081123;28;20466;-76
2022/03/12 06:53:25;;;;;;;13.20;8.77;;;9.90;1.00;;;;;;5088768;28;20450;-75
2022/03/12 06:55:56;;;;;;;13.47;9.13;;;9.90;1.00;;;;;;5088853;28;20526;-77
2022/03/12 06:58:24;;;;;;;11.63;7.70;;;10.00;1.00;;;;;;5086585;28;20573;-78
2022/03/12 07:00:53;;;;;;;11.23;7.60;;;10.00;1.00;;;;;;5092573;28;21281;-76
2022/03/12 07:03:21;;;;;;;9.57;7.80;;;10.20;1.00;;;;;;5079259;28;20461;-77
2022/03/12 07:05:49;;;;;;;12.53;8.20;;;10.10;1.00;;;;;;5078903;28;21229;-77
2022/03/12 07:08:19;;;;;;;10.67;8.83;;;10.30;1.00;;;;;;5080070;28;20480;-76
2022/03/12 07:10:47;;;;;;;11.23;7.97;;;10.20;1.00;;;;;;5080745;28;20450;-77
2022/03/12 07:13:17;;;;;;;9.90;7.63;;;10.30;1.00;;;;;;5088725;28;20513;-77
2022/03/12 07:15:45;;;;;;;10.60;8.83;;;10.30;1.00;;;;;;5087263;28;20444;-77
2022/03/12 07:18:13;;;;;;;11.33;7.83;;;10.40;1.00;;;;;;5085507;28;20840;-77
2022/03/12 07:20:42;;;;;;;11.27;8.37;;;10.60;1.00;;;;;;5088970;28;20492;-77
2022/03/12 07:23:10;;;;;;;13.73;9.30;;;10.60;1.00;;;;;;5085759;28;20515;-77
2022/03/12 07:25:38;;;;;;;11.40;8.40;;;10.60;1.00;;;;;;5083103;28;20498;-76
2022/03/12 07:28:07;;;;;;;13.20;8.87;;;10.80;1.00;;;;;;5084097;28;20473;-77
2022/03/12 07:30:36;;;;;;;13.23;8.67;;;10.50;1.00;;;;;;5089036;28;20433;-77
2022/03/12 07:33:04;;;;;;;13.17;9.33;;;10.50;1.00;;;;;;5092641;27;20449;-76
2022/03/12 07:35:33;;;;;;;14.33;9.83;;;10.60;1.00;;;;;;5087431;28;20477;-77
2022/03/12 07:38:02;;;;;;;11.83;7.97;;;10.50;1.00;;;;;;5078355;28;20477;-76
2022/03/12 07:40:31;;;;;;;13.43;8.47;;;10.50;1.00;;;;;;5074830;28;21026;-76
2022/03/12 07:42:59;;;;;;;15.43;10.43;;;10.70;1.00;;;;;;5083043;28;20440;-77
2022/03/12 07:45:27;;;;;;;12.90;9.20;;;10.80;1.00;;;;;;5078061;28;20208;-78
2022/03/12 07:47:56;;;;;;;11.80;9.10;;;11.00;1.00;;;;;;5079691;28;20586;-76
2022/03/12 07:50:26;;;;;;;12.13;8.43;;;11.10;1.00;;;;;;5072536;28;20512;-76
2022/03/12 07:52:55;;;;;;;13.07;8.93;;;11.20;1.00;;;;;;5084289;28;20459;-78
2022/03/12 07:55:23;;;;;;;14.20;8.27;;;11.40;1.00;;;;;;5090375;28;20501;-79
2022/03/12 07:57:52;;;;;;;12.20;8.80;;;11.50;1.00;;;;;;5083941;28;20475;-81
2022/03/12 08:00:20;;;;;;;13.65;9.82;;;11.50;1.00;;;;;;5086290;28;20501;-78
2022/03/12 08:02:50;;;;;;;11.63;9.13;;;11.60;1.00;;;;;;5089303;28;20292;-79
2022/03/12 08:05:23;;;;;;;14.20;9.70;;;11.60;1.00;;;;;;5089035;28;20454;-80
2022/03/12 08:07:52;;;;;;;14.53;8.53;;;11.60;1.00;;;;;;5089241;28;20528;-79
2022/03/12 08:10:20;;;;;;;12.67;8.30;;;11.80;1.00;;;;;;5083035;28;20473;-78
2022/03/12 08:12:48;;;;;;;9.80;8.00;;;12.00;1.00;;;;;;5087849;28;20457;-78
2022/03/12 08:15:18;;;;;;;11.27;8.10;;;12.10;1.00;;;;;;5087644;28;20441;-79
2022/03/12 08:17:47;;;;;;;11.97;8.63;;;12.20;1.00;;;;;;5092268;28;20474;-79
2022/03/12 08:20:18;;;;;;;12.13;9.33;;;12.30;1.00;;;;;;5087022;28;20482;-80
2022/03/12 08:22:48;;;;;;;12.47;9.00;;;12.40;1.00;;;;;;5087807;28;20454;-78
2022/03/12 08:25:16;;;;;;;11.83;8.03;;;12.60;1.00;;;;;;5090231;28;20457;-78
2022/03/12 08:27:45;;;;;;;11.13;9.83;;;12.70;1.00;;;;;;5087214;28;20478;-79
2022/03/12 08:30:14;;;;;;;12.63;8.67;;;12.80;1.00;;;;;;5083905;28;20441;-78
2022/03/12 08:32:42;;;;;;;16.83;10.30;;;12.90;1.00;;;;;;5085873;28;20498;-78
2022/03/12 08:35:12;;;;;;;14.77;9.73;;;13.00;1.00;;;;;;5075901;28;20458;-76
2022/03/12 08:37:41;;;;;;;13.07;9.10;;;12.90;1.00;;;;;;5076061;28;20513;-78
2022/03/12 08:40:14;;;;;;;11.77;8.90;;;13.00;1.00;;;;;;5080562;28;21066;-78
2022/03/12 08:42:42;;;;;;;13.70;9.53;;;13.10;1.00;;;;;;5090846;28;21021;-76
2022/03/12 08:45:11;;;;;;;13.93;9.27;;;13.20;1.00;;;;;;5071075;28;20447;-78
2022/03/12 08:47:40;;;;;;;10.30;9.10;;;13.30;1.00;;;;;;5076440;28;20480;-75
2022/03/12 08:50:10;;;;;;;14.63;9.65;;;13.40;1.00;;;;;;5087114;28;20526;-77
2022/03/12 08:52:38;;;;;;;10.70;8.03;;;13.50;1.00;;;;;;5084928;28;20194;-79
2022/03/12 08:55:07;;;;;;;15.70;10.27;;;13.60;1.00;;;;;;5088321;28;20436;-79
2022/03/12 08:57:37;;;;;;;14.63;9.60;;;13.70;1.00;;;;;;5082979;28;20445;-78
2022/03/12 09:00:08;;;;;;;15.67;11.23;;;13.90;1.00;;;;;;5078788;28;20910;-80
2022/03/12 09:02:37;;;;;;;11.87;9.30;;;14.00;1.00;;;;;;5082396;28;20513;-77
2022/03/12 09:05:07;;;;;;;14.30;9.33;;;13.90;1.00;;;;;;5086835;28;20505;-76
2022/03/12 09:07:35;;;;;;;15.67;10.30;;;14.10;1.00;;;;;;5088142;28;20465;-78
2022/03/12 09:10:05;;;;;;;11.90;9.03;;;14.00;1.00;;;;;;5095112;28;20451;-78
2022/03/12 09:12:33;;;;;;;14.93;10.53;;;14.10;1.00;;;;;;5091099;28;20491;-77
2022/03/12 09:15:03;;;;;;;13.20;10.03;;;14.20;1.00;;;;;;5084852;28;20444;-79
2022/03/12 09:17:31;;;;;;;15.70;10.60;;;14.30;1.00;;;;;;5086318;28;20503;-76
2022/03/12 09:19:59;;;;;;;15.33;9.40;;;14.40;1.00;;;;;;5082113;28;20473;-77
2022/03/12 09:22:27;;;;;;;13.00;10.07;;;14.60;1.00;;;;;;5085831;28;20514;-76
2022/03/12 09:24:55;;;;;;;13.70;9.23;;;14.60;1.00;;;;;;5077608;28;20461;-77
2022/03/12 09:27:24;;;;;;;13.30;9.40;;;14.70;1.00;;;;;;5079670;28;20474;-78
2022/03/12 09:29:52;;;;;;;15.10;10.50;;;14.60;1.00;;;;;;5082506;28;20897;-79
2022/03/12 09:32:22;;;;;;;15.23;10.30;;;14.70;1.00;;;;;;5078172;28;20528;-79
2022/03/12 09:34:50;;;;;;;11.20;8.80;;;14.80;1.00;;;;;;5083271;28;20447;-76
2022/03/12 09:37:19;;;;;;;12.80;9.10;;;14.90;1.00;;;;;;5087930;28;20632;-77
2022/03/12 09:39:47;;;;;;;10.67;9.03;;;15.00;1.00;;;;;;5094290;28;20462;-78
2022/03/12 09:42:16;;;;;;;10.33;8.83;;;15.30;1.00;;;;;;5081495;28;20536;-77
2022/03/12 09:44:44;;;;;;;13.00;8.87;;;15.60;1.00;;;;;;5087463;28;20465;-77
2022/03/12 09:47:14;;;;;;;9.00;8.10;;;15.80;1.00;;;;;;5096205;28;20813;-76
2022/03/12 09:49:43;;;;;;;11.53;8.70;;;16.00;1.00;;;;;;5100120;28;20915;-77
2022/03/12 09:52:12;;;;;;;10.77;8.03;;;16.10;1.00;;;;;;5089217;28;20460;-77
2022/03/12 09:54:41;;;;;;;10.43;9.00;;;16.30;1.00;;;;;;5079386;28;20462;-78
2022/03/12 09:57:09;;;;;;;13.33;8.93;;;16.50;1.00;;;;;;5085761;28;20863;-74
2022/03/12 09:59:37;;;;;;;13.27;8.20;;;16.60;1.00;;;;;;5082756;28;20456;-77
2022/03/12 10:02:06;;;;;;;14.60;9.60;;;16.70;1.00;;;;;;5082772;28;20485;-74
2022/03/12 10:04:35;;;;;;;9.80;8.33;;;16.80;1.00;;;;;;5084028;28;20539;-79
2022/03/12 10:07:09;;;;;;;11.60;8.27;;;16.80;1.00;;;;;;5091855;28;20511;-76
2022/03/12 10:09:38;;;;;;;13.57;9.17;;;17.10;1.00;;;;;;5086309;28;20463;-78
2022/03/12 10:12:07;;;;;;;10.30;7.57;;;17.10;1.00;;;;;;5079863;28;20490;-78
2022/03/12 10:14:36;;;;;;;9.00;7.20;;;17.20;1.00;;;;;;5087237;28;20511;-77
2022/03/12 10:17:04;;;;;;;9.60;8.10;;;17.30;1.00;;;;;;5090054;28;20965;-78
2022/03/12 10:19:37;;;;;;;8.63;7.10;;;17.30;1.00;;;;;;5086497;28;20465;-77
2022/03/12 10:22:08;;;;;;;10.60;7.40;;;17.40;1.00;;;;;;5081407;28;20462;-78
2022/03/12 10:24:36;;;;;;;11.50;7.97;;;17.50;1.00;;;;;;5090834;28;20460;-78
2022/03/12 10:27:06;;;;;;;10.93;8.57;;;17.70;1.00;;;;;;5091743;28;20498;-77
2022/03/12 10:29:34;;;;;;;11.03;8.63;;;17.70;1.00;;;;;;5091081;28;20449;-77
2022/03/12 10:32:22;;;;;;;12.00;8.97;;;17.70;1.00;;;;;;5096663;28;20452;-78
2022/03/12 10:34:53;;;;;;;11.27;7.60;;;17.70;1.00;;;;;;5078819;28;21004;-77
2022/03/12 10:37:24;;;;;;;13.33;8.10;;;17.80;1.00;;;;;;5073965;28;20456;-76
2022/03/12 10:40:06;;;;;;;11.90;9.47;;;17.90;1.00;;;;;;5093199;28;20460;-78
2022/03/12 10:42:35;;;;;;;11.90;8.90;;;17.90;1.00;;;;;;5078040;28;20846;-77
2022/03/12 10:45:10;;;;;;;12.20;8.50;;;18.10;1.00;;;;;;5081378;28;20446;-76
2022/03/12 10:47:44;;;;;;;10.60;8.83;;;18.20;1.00;;;;;;5083051;28;20526;-75
2022/03/12 10:50:16;;;;;;;11.93;7.97;;;18.20;1.00;;;;;;5085336;28;20534;-75
2022/03/12 10:52:49;;;;;;;11.97;9.00;;;18.40;1.00;;;;;;5077562;28;21120;-76
2022/03/12 10:55:25;;;;;;;12.13;9.23;;;18.40;1.00;;;;;;5077444;28;20465;-76
2022/03/12 10:58:00;;;;;;;8.97;8.07;;;18.50;1.00;;;;;;5081087;28;20558;-76
2022/03/12 11:00:30;;;;;;;11.00;8.47;;;18.80;1.00;;;;;;5079323;28;20540;-77
2022/03/12 11:03:00;;;;;;;13.80;8.83;;;18.90;1.00;;;;;;5081741;28;20899;-77
2022/03/12 11:05:31;;;;;;;9.73;7.70;;;19.00;1.00;;;;;;5080598;28;20458;-77
2022/03/12 11:08:16;;;;;;;12.50;8.60;;;19.20;1.00;;;;;;5080527;28;20481;-77
2022/03/12 11:10:49;;;;;;;12.27;9.30;;;19.20;1.00;;;;;;5082773;28;20456;-77
2022/03/12 11:13:38;;;;;;;9.23;8.00;;;19.40;1.00;;;;;;5078997;28;20452;-77
2022/03/12 11:16:15;;;;;;;14.33;9.60;;;19.50;1.00;;;;;;5082514;28;20460;-77
2022/03/12 11:18:57;;;;;;;13.53;9.13;;;19.70;1.00;;;;;;5081328;28;20497;-77
2022/03/12 11:21:27;;;;;;;10.87;8.00;;;19.60;1.00;;;;;;5077912;28;20551;-77
2022/03/12 11:23:59;;;;;;;9.90;8.63;;;19.90;1.00;;;;;;5083273;28;20449;-77
2022/03/12 11:26:28;;;;;;;11.07;8.37;;;20.00;1.00;;;;;;5084220;28;20472;-78
2022/03/12 11:28:59;;;;;;;9.57;8.10;;;19.90;1.00;;;;;;5080699;28;20559;-76
2022/03/12 11:31:47;;;;;;;10.13;7.90;;;19.90;1.00;;;;;;5074482;28;20454;-78
2022/03/12 11:34:20;;;;;;;12.50;9.57;;;19.50;1.00;;;;;;5080027;28;20579;-77
2022/03/12 11:37:02;;;;;;;11.07;8.90;;;19.40;1.00;;;;;;5076547;28;20477;-77
2022/03/12 11:39:36;;;;;;;13.93;9.33;;;19.20;1.00;;;;;;5081014;28;20988;-77
2022/03/12 11:42:11;;;;;;;10.45;8.00;;;19.00;1.00;;;;;;5083095;28;20535;-77
2022/03/12 11:44:41;;;;;;;10.23;8.27;;;19.10;1.00;;;;;;5083959;28;20235;-77
2022/03/12 11:47:10;;;;;;;11.50;7.07;;;19.00;1.00;;;;;;5083809;28;20441;-77
2022/03/12 11:49:39;;;;;;;8.90;6.50;;;18.90;1.00;;;;;;5084238;28;20862;-77
2022/03/12 11:52:08;;;;;;;10.10;6.43;;;18.70;1.00;;;;;;5088967;28;20973;-77
2022/03/12 11:54:43;;;;;;;12.53;8.50;;;18.70;1.00;;;;;;5089610;28;20453;-76
2022/03/12 11:57:15;;;;;;;9.33;7.60;;;18.50;1.00;;;;;;5089337;28;20449;-77
2022/03/12 11:59:43;;;;;;;10.27;7.80;;;18.50;1.00;;;;;;5085926;28;21053;-77
2022/03/12 12:02:30;;;;;;;8.20;6.63;;;18.40;1.00;;;;;;5088239;28;20477;-78
2022/03/12 12:05:04;;;;;;;8.00;6.57;;;18.40;1.00;;;;;;5083986;28;20454;-77
2022/03/12 12:07:36;;;;;;;10.07;8.20;;;18.40;1.00;;;;;;5079828;28;20462;-78
2022/03/12 12:10:08;;;;;;;11.93;7.20;;;18.40;1.00;;;;;;5081026;28;20454;-78
2022/03/12 12:12:43;;;;;;;10.50;7.07;;;18.40;1.00;;;;;;5079817;28;20453;-78
2022/03/12 12:15:15;;;;;;;10.47;6.93;;;18.30;1.00;;;;;;5080036;28;20481;-78
2022/03/12 12:17:44;;;;;;;11.70;7.90;;;18.20;1.00;;;;;;5081897;28;20487;-77
2022/03/12 12:20:14;;;;;;;12.00;7.13;;;18.00;1.00;;;;;;5087868;28;20518;-78
2022/03/12 12:22:43;;;;;;;7.33;6.10;;;18.00;1.00;;;;;;5080084;28;20478;-79
2022/03/12 12:25:15;;;;;;;9.40;6.40;;;18.10;1.00;;;;;;5078551;28;21303;-80
2022/03/12 12:27:45;;;;;;;6.83;5.47;;;18.20;1.00;;;;;;5070493;28;21066;-78
2022/03/12 12:30:17;;;;;;;8.03;5.43;;;18.10;1.00;;;;;;5083299;28;20456;-79
2022/03/12 12:32:48;;;;;;;9.07;5.97;;;18.00;1.00;;;;;;5077481;28;20453;-79
2022/03/12 12:35:21;;;;;;;6.83;5.20;;;18.00;1.00;;;;;;5080362;28;20462;-79
2022/03/12 12:37:57;;;;;;;7.70;5.60;;;18.10;1.00;;;;;;5075333;28;20461;-78
2022/03/12 12:40:31;;;;;;;8.47;5.93;;;18.20;1.00;;;;;;5079869;28;20462;-79
2022/03/12 12:43:05;;;;;;;7.33;5.37;;;18.40;1.00;;;;;;5079520;28;20827;-78
2022/03/12 12:45:36;;;;;;;7.87;5.60;;;18.40;1.00;;;;;;5086736;28;20444;-80
2022/03/12 12:48:10;;;;;;;7.10;5.73;;;18.40;1.00;;;;;;5087093;28;20504;-80
2022/03/12 12:50:39;;;;;;;8.37;5.60;;;18.50;1.00;;;;;;5089227;28;20451;-78
2022/03/12 12:53:13;;;;;;;6.70;5.60;;;18.50;1.00;;;;;;5093485;28;20453;-79
2022/03/12 12:55:44;;;;;;;5.87;5.03;;;18.60;1.00;;;;;;5093819;28;20445;-80
2022/03/12 12:58:13;;;;;;;7.00;5.27;;;18.70;1.00;;;;;;5082981;28;20500;-80
2022/03/12 13:00:45;;;;;;;6.00;5.50;;;18.60;1.00;;;;;;5080661;28;20453;-79
2022/03/12 13:03:22;;;;;;;8.20;5.50;;;18.50;1.00;;;;;;5081496;28;20473;-79
2022/03/12 13:05:53;;;;;;;6.87;4.93;;;18.50;1.00;;;;;;5086644;28;20493;-80